Thursday, February 22, 2018, 5:46 AM EST
Back to Local

KMPV, Knapp State Airport

Location: Barre, VT, United States Lat: 44.2
Local Time: 5:46 AM EST (10:46 GMT) Lon: -72.567
Time Zone: US/Eastern Elev: 1164 ft

Show me the last for .
Show Decoded

2018-02-22 04:51 METAR KMPV 220951Z AUTO 00000KT 10SM FEW110 M03/M08 A3062 RMK AO2 SLP384
                 T10281078 =
2018-02-22 03:51 METAR KMPV 220851Z AUTO 34003KT 10SM CLR M03/M08 A3061 RMK AO2 SLP380 T10281078
                 53015 =
2018-02-22 02:51 METAR KMPV 220751Z AUTO 35006KT 10SM CLR M02/M07 A3060 RMK AO2 SLP374 T10221072
                 =
2018-02-22 01:51 METAR KMPV 220651Z AUTO 33006KT 10SM CLR M02/M07 A3058 RMK AO2 SLP364 T10171072
                 =
2018-02-22 00:51 METAR KMPV 220551Z AUTO 31008KT 10SM CLR M01/M06 A3057 RMK AO2 SLP359 T10111056
                 10061 21011 51028 =
2018-02-21 23:51 METAR KMPV 220451Z AUTO VRB04KT 10SM CLR M01/M04 A3054 RMK AO2 SLP351 T10061044
                 402111006 =
2018-02-21 22:51 METAR KMPV 220351Z AUTO 33009KT 10SM CLR 01/M04 A3051 RMK AO2 SLP340 T00061039 =
2018-02-21 21:51 METAR KMPV 220251Z AUTO 34007G15KT 310V020 10SM BKN095 02/M03 A3048 RMK AO2
                 SLP329 T00171033 53034 =
2018-02-21 20:51 METAR KMPV 220151Z AUTO 31012G23KT 10SM OVC085 03/M03 A3044 RMK AO2 PK WND
                 30028/0113 SLP317 T00281028 =
2018-02-21 19:51 METAR KMPV 220051Z AUTO 30015G25KT 10SM OVC080 04/M01 A3041 RMK AO2 SLP304
                 T00391006 =
2018-02-21 18:51 METAR KMPV 212351Z AUTO 29014KT 10SM OVC065 06/01 A3038 RMK AO2 SLP294 60002
                 T00610006 10206 20061 51053 =
2018-02-21 17:51 METAR KMPV 212251Z AUTO 33007KT 10SM BKN036 OVC043 08/03 A3033 RMK AO2 SLP278
                 T00780033 =
2018-02-21 17:09 METAR KMPV 212209Z AUTO 00000KT 10SM FEW016 SCT031 OVC037 08/06 A3029 RMK AO2
                 T00780056 =
2018-02-21 16:51 METAR KMPV 212151Z AUTO 33006G18KT 10SM FEW009 BKN016 OVC030 08/07 A3027 RMK AO2
                 RAB14E44 SLP258 P0000 T00830067 =
2018-02-21 15:51 METAR KMPV 212051Z AUTO 32013G20KT 10SM BKN007 BKN036 OVC049 10/10 A3022 RMK AO2
                 PK WND 31027/1956 RAE48 CIG 005V012 PRESRR SLP239 P0002 60002 T01000100 51054 =
2018-02-21 15:47 METAR KMPV 212047Z AUTO 30015G21KT 10SM -RA SCT007 BKN017 OVC049 11/11 A3021 RMK
                 AO2 PK WND 31027/1956 PRESRR P0002 =
2018-02-21 15:26 METAR KMPV 212026Z AUTO 30011G19KT 5SM -RA BR FEW024 BKN038 OVC048 11/11 A3018
                 RMK AO2 PK WND 31027/1956 P0001 T01110111 =
2018-02-21 15:05 METAR KMPV 212005Z AUTO 32013G27KT 5SM -RA BR SCT022 BKN027 OVC035 12/12 A3015
                 RMK AO2 PK WND 31027/1956 P0001 T01170117 =
2018-02-21 14:51 METAR KMPV 211951Z AUTO 32015G22KT 10SM -RA FEW022 BKN039 OVC047 13/12 A3014 RMK
                 AO2 WSHFT 1931 RAB33 PRESRR SLP210 P0000 T01280117 =
2018-02-21 13:51 METAR KMPV 211851Z AUTO 26009G19KT 10SM SCT048 BKN090 19/12 A3005 RMK AO2 SLP178
                 T01940117 =
2018-02-21 12:51 METAR KMPV 211751Z AUTO 25012G23KT 220V290 10SM FEW046 21/11 A3006 RMK AO2
                 SLP179 T02060111 10211 20094 56017 $ =
2018-02-21 11:51 METAR KMPV 211651Z AUTO 21011KT 10SM CLR 21/11 A3006 RMK AO2 SLP179 T02060111 =
2018-02-21 10:51 METAR KMPV 211551Z AUTO 16013G19KT 10SM CLR 17/11 A3008 RMK AO2 SLP188 T01720111
                 =
2018-02-21 09:51 METAR KMPV 211451Z AUTO 20009G17KT 10SM CLR 17/11 A3011 RMK AO2 SLP197 T01720111
                 58009 =
2018-02-21 08:51 METAR KMPV 211351Z AUTO 17011KT 10SM CLR 14/11 A3012 RMK AO2 SLP204 T01440106 =
2018-02-21 07:51 METAR KMPV 211251Z AUTO 18008KT 10SM CLR 13/10 A3014 RMK AO2 SLP209 T01280100 =
2018-02-21 06:51 METAR KMPV 211151Z AUTO 16005KT 10SM CLR 12/10 A3013 RMK AO2 SLP209 70003
                 T01220100 10144 20078 56012 =
2018-02-21 05:51 METAR KMPV 211051Z AUTO 18009KT 10SM CLR 08/08 A3014 RMK AO2 SLP212 T00830078 =

Support USWX by starting your Amazon purchase here.